M I D A S
Marine Information and Data Acquisition System
Tripno 695 of the Zeeleeuw from 2004-04-15 06:10:35 to 2004-04-15 15:07:12
Back to CruiseResearch ActivitiesStationsMapUnderway DataData graphs

EquipmentUnitsComment
TimeDGPSUTC
LatitudeDGPSDM.mWGS84
LongitudeDGPSDM.mWGS84
HeadingGyrodeg 
SOGDGPSknotsSpeed over ground
COGDGPSdegCourse over ground
DepthEcho soundermeters200 kHz
Missing or incorrect values are displayed as -999
Navigation data collected by the RV Zeeleeuw from 2004-04-15 06:10:35 to 2004-04-15 15:07:12
Time Latitude Longitude Heading SOG COG Depth
2004-04-15 06:11:36 51°13.597 2°56.095 113.9 1.2 288 7
2004-04-15 06:12:37 51°13.615 2°56.02 117.5 3.9 292 -999
2004-04-15 06:13:37 51°13.649 2°55.91 123.1 4.9 299 -999
2004-04-15 06:14:37 51°13.677 2°55.787 100.8 4.9 278 -999
2004-04-15 06:15:36 51°13.684 2°55.747 60.9 1.4 38 13.4
2004-04-15 06:16:36 51°13.727 2°55.761 355.1 1.9 2 11
2004-04-15 06:17:36 51°13.734 2°55.759 319.4 3.5 318 10.1
2004-04-15 06:18:36 51°13.812 2°55.65 330 6.8 327 10.1
2004-04-15 06:19:36 51°13.92 2°55.572 343.3 7.4 339 9.7
2004-04-15 06:20:36 51°14.038 2°55.5 343.6 7.6 338 10.9
2004-04-15 06:21:36 51°14.165 2°55.41 338 9 333 11.1
2004-04-15 06:22:36 51°14.292 2°55.229 313.8 11.3 307 10.9
2004-04-15 06:23:36 51°14.403 2°54.959 308 13 302 10.6
2004-04-15 06:24:36 51°14.514 2°54.642 303.9 13.9 298 10.5
2004-04-15 06:25:36 51°14.623 2°54.317 304.6 14 298 10.6
2004-04-15 06:26:36 51°14.732 2°53.991 305.1 13.9 299 10.2
2004-04-15 06:27:36 51°14.84 2°53.667 305.1 13.9 298 10
2004-04-15 06:28:36 51°14.949 2°53.34 304.8 14 297 10.2
2004-04-15 06:29:36 51°15.049 2°53.005 298.7 14 291 10.3
2004-04-15 06:30:36 51°15.135 2°52.658 299 14.1 292 10.9
2004-04-15 06:31:36 51°15.222 2°52.311 299 14.1 292 11.6
2004-04-15 06:32:36 51°15.293 2°51.954 290.3 14.2 284 12.2
2004-04-15 06:33:36 51°15.328 2°51.583 275.3 14.2 268 12.5
2004-04-15 06:34:36 51°15.286 2°51.21 263.8 14.4 259 12.7
2004-04-15 06:35:35 51°15.244 2°50.841 265.1 14.4 260 12.9
2004-04-15 06:36:36 51°15.203 2°50.46 265.5 14.3 261 12.9
2004-04-15 06:37:36 51°15.166 2°50.084 266 14.3 261 13
2004-04-15 06:38:36 51°15.129 2°49.709 265.9 14.3 261 13.1
2004-04-15 06:39:36 51°15.093 2°49.336 266.2 14.2 262 13.1
2004-04-15 06:40:36 51°15.06 2°48.962 266.2 14.3 262 13.1
2004-04-15 06:41:36 51°15.026 2°48.589 266.3 14.1 262 13.1
2004-04-15 06:42:36 51°15.006 2°48.22 279.9 14.1 275 13.3
2004-04-15 06:43:36 51°15.032 2°47.848 281 14.1 277 13.2
2004-04-15 06:44:36 51°15.032 2°47.477 271.2 14 267 11
2004-04-15 06:45:36 51°15.002 2°47.115 263.8 13.7 259 9.9
2004-04-15 06:46:36 51°14.967 2°46.755 270.5 13.8 266 9.8
2004-04-15 06:47:36 51°14.944 2°46.388 267.7 13.9 263 10.1
2004-04-15 06:48:36 51°14.897 2°46.028 256.4 14 252 11.3
2004-04-15 06:49:37 51°14.843 2°45.661 264.5 14 261 12.3
2004-04-15 06:50:36 51°14.802 2°45.303 263.7 13.9 259 13.6
2004-04-15 06:51:36 51°14.762 2°44.939 263.9 14 260 14.8
2004-04-15 06:52:36 51°14.723 2°44.572 264.2 14.1 260 15.7
2004-04-15 06:53:35 51°14.685 2°44.211 264 14.1 260 16.7
2004-04-15 06:54:36 51°14.645 2°43.837 263.8 14.1 260 17.1
2004-04-15 06:55:36 51°14.607 2°43.47 264.2 14.1 261 18
2004-04-15 06:56:36 51°14.57 2°43.102 264 14 260 18.6
2004-04-15 06:57:36 51°14.532 2°42.735 264.4 14 261 18.5
2004-04-15 06:58:36 51°14.497 2°42.366 263.8 14 261 18
2004-04-15 06:59:36 51°14.46 2°42 263.9 14 261 16.6
2004-04-15 07:00:36 51°14.423 2°41.636 264 13.9 261 15.3
2004-04-15 07:01:36 51°14.386 2°41.271 263.6 13.9 260 15.3
2004-04-15 07:02:36 51°14.35 2°40.906 264.5 13.9 261 14.8
2004-04-15 07:03:36 51°14.312 2°40.544 263.8 13.8 260 13.9
2004-04-15 07:04:36 51°14.275 2°40.183 264.1 13.7 261 13.5
2004-04-15 07:05:36 51°14.237 2°39.824 263.4 13.7 259 14.2
2004-04-15 07:06:35 51°14.2 2°39.474 264 13.6 260 14.4
2004-04-15 07:07:36 51°14.162 2°39.113 263.3 13.6 258 12.9
2004-04-15 07:08:36 51°14.121 2°38.759 265 13.6 260 13.4
2004-04-15 07:09:37 51°14.052 2°38.408 252.5 13.7 248 16.6
2004-04-15 07:10:36 51°13.962 2°38.082 250.2 13.7 246 17
2004-04-15 07:11:36 51°13.872 2°37.75 250.8 13.7 247 18
2004-04-15 07:12:36 51°13.783 2°37.416 250.7 13.7 247 18.9
2004-04-15 07:13:36 51°13.689 2°37.087 246.3 13.6 241 19
2004-04-15 07:14:36 51°13.582 2°36.768 246 13.6 242 19.3
2004-04-15 07:15:36 51°13.478 2°36.449 245.1 13.5 242 17.1
2004-04-15 07:16:36 51°13.36 2°36.145 236.7 13.5 234 17.5
2004-04-15 07:17:36 51°13.231 2°35.852 238.3 13.5 235 16.6
2004-04-15 07:18:36 51°13.103 2°35.557 238.5 13.5 235 16.2
2004-04-15 07:19:36 51°12.977 2°35.261 239.9 13.4 237 13.7
2004-04-15 07:20:36 51°12.85 2°34.97 236.5 13.4 233 13.3
2004-04-15 07:21:37 51°12.708 2°34.689 234.9 13.3 231 14.4
2004-04-15 07:22:36 51°12.563 2°34.434 226.4 13.1 222 16.2
2004-04-15 07:23:36 51°12.401 2°34.205 225.4 13 222 17.2
2004-04-15 07:24:37 51°12.239 2°33.97 225.6 13 222 19
2004-04-15 07:25:36 51°12.082 2°33.743 225.7 12.9 222 19.6
2004-04-15 07:26:36 51°11.944 2°33.565 212 7.1 204 19.3
2004-04-15 07:27:36 51°11.858 2°33.528 205.5 4.3 197 18.3
2004-04-15 07:28:36 51°11.804 2°33.495 205.3 3.1 194 17.7
2004-04-15 07:29:36 51°11.758 2°33.483 201.7 2.7 189 16.6
2004-04-15 07:30:36 51°11.714 2°33.47 207.5 2.9 195 16.4
2004-04-15 07:31:37 51°11.668 2°33.435 221.7 3.2 212 15.5
2004-04-15 07:32:37 51°11.63 2°33.377 237.8 3.2 231 14.3
2004-04-15 07:33:36 51°11.601 2°33.309 243.3 3.1 239 13.9
2004-04-15 07:34:36 51°11.58 2°33.233 251.1 3.1 247 13.7
2004-04-15 07:35:36 51°11.558 2°33.159 248.2 3.1 244 13.9
2004-04-15 07:36:36 51°11.536 2°33.087 248.9 3 246 14.1
2004-04-15 07:37:36 51°11.515 2°33.013 250.6 3.1 247 14.4
2004-04-15 07:38:36 51°11.496 2°32.938 250.2 3.1 248 14.8
2004-04-15 07:39:36 51°11.472 2°32.871 234.7 2.9 228 15
2004-04-15 07:40:36 51°11.439 2°32.815 235.1 2.9 227 14.8
2004-04-15 07:41:36 51°11.405 2°32.757 232.2 3 224 14.8
2004-04-15 07:42:37 51°11.366 2°32.705 228.8 3 219 14.7
2004-04-15 07:43:36 51°11.328 2°32.654 229.7 3 221 14.7
2004-04-15 07:44:36 51°11.291 2°32.601 229.6 3 221 14.7
2004-04-15 07:45:36 51°11.251 2°32.553 225 3 215 15
2004-04-15 07:46:36 51°11.208 2°32.511 218.6 3 206 15.2
2004-04-15 07:47:36 51°11.16 2°32.486 206.7 3.1 191 15.9
2004-04-15 07:48:36 51°11.108 2°32.477 199.8 3.2 183 16.5
2004-04-15 07:49:37 51°11.053 2°32.473 200.4 3.3 185 16.2
2004-04-15 07:50:36 51°11 2°32.464 204 3.2 188 15.6
2004-04-15 07:51:36 51°10.948 2°32.448 210.6 3.2 196 15.5
2004-04-15 07:52:36 51°10.901 2°32.414 225.3 3 213 15.1
2004-04-15 07:53:36 51°10.867 2°32.359 241 2.9 234 14.9
2004-04-15 07:54:36 51°10.842 2°32.294 245.4 2.9 240 15
2004-04-15 07:55:36 51°10.815 2°32.231 237.9 2.9 231 15.1
2004-04-15 07:56:36 51°10.782 2°32.176 234.4 2.9 225 15.2
2004-04-15 07:57:37 51°10.749 2°32.119 236.4 2.9 227 15.2
2004-04-15 07:58:36 51°10.718 2°32.063 235.9 2.9 227 15.2
2004-04-15 07:59:36 51°10.686 2°32.007 237.3 2.9 229 14.9
2004-04-15 08:00:36 51°10.655 2°31.949 239.3 2.8 231 15
2004-04-15 08:01:36 51°10.625 2°31.892 238.2 2.8 229 15
2004-04-15 08:02:36 51°10.595 2°31.834 239 2.8 230 14.8
2004-04-15 08:03:36 51°10.567 2°31.776 242 2.7 236 15
2004-04-15 08:04:37 51°10.543 2°31.715 245 2.7 241 15.2
2004-04-15 08:05:36 51°10.522 2°31.653 246.7 2.7 242 15.6
2004-04-15 08:06:35 51°10.505 2°31.59 249.9 2.6 248 16.1
2004-04-15 08:07:36 51°10.491 2°31.537 246.4 1.8 242 16.5
2004-04-15 08:08:35 51°10.478 2°31.511 235.2 1.1 222 16.6
2004-04-15 08:09:36 51°10.464 2°31.495 232.7 1.5 223 16.5
2004-04-15 08:10:36 51°10.469 2°31.414 293.9 4.6 307 17.7
2004-04-15 08:11:37 51°10.553 2°31.361 1 6.1 8 20.3
2004-04-15 08:12:37 51°10.63 2°31.419 30.4 4.8 34 20.4
2004-04-15 08:13:36 51°10.683 2°31.494 45 4.2 46 20
2004-04-15 08:14:35 51°10.728 2°31.572 48.6 4.1 49 19.7
2004-04-15 08:15:36 51°10.773 2°31.654 51.5 4 50 19.4
2004-04-15 08:16:36 51°10.814 2°31.739 54.7 4 53 19
2004-04-15 08:17:36 51°10.853 2°31.821 51.8 3.8 52 18.6
2004-04-15 08:18:36 51°10.896 2°31.895 40.1 3.8 44 18.4
2004-04-15 08:19:36 51°10.943 2°31.961 31.8 3.8 39 18.2
2004-04-15 08:20:37 51°10.994 2°32.024 30 3.8 38 18.3
2004-04-15 08:21:36 51°11.042 2°32.085 31.2 3.8 38 17.9
2004-04-15 08:22:36 51°11.092 2°32.149 31.9 3.8 39 17.9
2004-04-15 08:23:36 51°11.141 2°32.213 33.3 3.8 39 17
2004-04-15 08:24:36 51°11.189 2°32.279 34.6 3.9 40 16.8
2004-04-15 08:25:36 51°11.238 2°32.345 34.5 3.8 39 16.6
2004-04-15 08:26:36 51°11.286 2°32.411 34.5 3.9 39 16.6
2004-04-15 08:27:35 51°11.334 2°32.475 33.4 3.9 37 17
2004-04-15 08:28:36 51°11.383 2°32.54 34.5 3.9 39 17.3
2004-04-15 08:29:36 51°11.432 2°32.606 35.4 3.9 39 18
2004-04-15 08:30:37 51°11.481 2°32.673 35.7 3.9 39 19.3
2004-04-15 08:31:35 51°11.528 2°32.738 36.6 3.9 40 20.5
2004-04-15 08:32:37 51°11.578 2°32.809 37.3 4 41 19.8
2004-04-15 08:33:36 51°11.625 2°32.877 36.8 3.9 41 20.7
2004-04-15 08:34:36 51°11.674 2°32.946 36.6 3.9 41 21.9
2004-04-15 08:35:35 51°11.722 2°33.015 38.9 4 43 21.9
2004-04-15 08:36:36 51°11.77 2°33.088 40 4 44 22.1
2004-04-15 08:37:36 51°11.817 2°33.16 38.9 3.9 43 21.6
2004-04-15 08:38:36 51°11.864 2°33.231 38.6 3.9 44 21.6
2004-04-15 08:39:36 51°11.912 2°33.303 38.9 3.9 43 21.8
2004-04-15 08:40:36 51°11.959 2°33.375 39.2 4 44 21.7
2004-04-15 08:41:36 51°12.003 2°33.446 39.3 3.9 43 21.7
2004-04-15 08:42:36 51°12.05 2°33.519 40.3 3.9 45 21.5
2004-04-15 08:43:36 51°12.096 2°33.59 39.9 3.8 45 21.3
2004-04-15 08:44:36 51°12.141 2°33.662 42.5 3.7 46 21
2004-04-15 08:45:37 51°12.184 2°33.735 45.5 3.8 48 20.5
2004-04-15 08:46:37 51°12.222 2°33.816 60.2 3.9 57 20.1
2004-04-15 08:47:37 51°12.255 2°33.91 69.8 4.2 63 19.8
2004-04-15 08:48:36 51°12.285 2°34.012 72.6 4.2 65 19.5
2004-04-15 08:49:36 51°12.314 2°34.105 68.6 3.6 62 19.3
2004-04-15 08:50:36 51°12.343 2°34.185 60.5 3.3 58 19
2004-04-15 08:51:36 51°12.401 2°34.27 24 4.9 31 18.1
2004-04-15 08:52:36 51°12.463 2°34.318 3 3.6 20 17.9
2004-04-15 08:53:36 51°12.512 2°34.34 346.2 2.8 13 17.2
2004-04-15 08:54:35 51°12.552 2°34.351 332.4 2.2 8 17.2
2004-04-15 08:55:37 51°12.586 2°34.359 326.2 2 10 16
2004-04-15 08:56:36 51°12.617 2°34.37 327 1.9 14 15.9
2004-04-15 08:57:35 51°12.65 2°34.379 330.2 3.2 356 15.7
2004-04-15 08:58:37 51°12.774 2°34.434 33.5 11.1 34 17.7
2004-04-15 08:59:37 51°12.936 2°34.692 56 15 53 19.6
2004-04-15 09:00:36 51°13.068 2°35.028 66 15.2 61 19.2
2004-04-15 09:01:36 51°13.194 2°35.379 65 15.3 60 19.2
2004-04-15 09:02:36 51°13.306 2°35.743 70.4 15.3 65 19.4
2004-04-15 09:03:37 51°13.417 2°36.117 70.1 15.4 65 19.4
2004-04-15 09:04:36 51°13.526 2°36.479 69.4 15.4 64 19.7
2004-04-15 09:05:36 51°13.638 2°36.849 69.7 15.5 65 20.6
2004-04-15 09:06:35 51°13.747 2°37.213 69.9 15.4 65 20.7
2004-04-15 09:07:36 51°13.854 2°37.588 72.7 15.2 67 20.7
2004-04-15 09:08:35 51°13.95 2°37.953 72.7 15.2 67 18
2004-04-15 09:09:36 51°14.047 2°38.332 76.7 15.1 73 18.6
2004-04-15 09:10:36 51°14.056 2°38.72 109.6 14.4 106 14.3
2004-04-15 09:11:37 51°13.892 2°38.919 182.8 12.3 181 15.8
2004-04-15 09:12:36 51°13.698 2°38.811 207.6 12.8 201 16.7
2004-04-15 09:13:37 51°13.494 2°38.688 208 12.8 202 16.8
2004-04-15 09:14:36 51°13.314 2°38.525 216.4 12.7 210 16.6
2004-04-15 09:15:37 51°13.128 2°38.352 217.1 12.8 211 16.2
2004-04-15 09:16:36 51°12.948 2°38.183 216.8 12.8 210 15.7
2004-04-15 09:17:36 51°12.765 2°38.012 217.5 12.6 211 15.3
2004-04-15 09:18:36 51°12.583 2°37.841 216.8 12.6 210 15.1
2004-04-15 09:19:37 51°12.398 2°37.665 217 12.7 210 14.6
2004-04-15 09:20:36 51°12.219 2°37.494 217.1 12.8 211 14.5
2004-04-15 09:21:37 51°12.035 2°37.316 217.5 12.7 212 14.3
2004-04-15 09:22:36 51°11.856 2°37.142 217.6 12.9 211 14.4
2004-04-15 09:23:36 51°11.673 2°36.966 217.3 12.9 211 14.4
2004-04-15 09:24:37 51°11.487 2°36.787 217.7 12.9 211 14.5
2004-04-15 09:25:36 51°11.306 2°36.615 217.1 12.9 211 14.3
2004-04-15 09:26:36 51°11.123 2°36.443 216.9 12.7 210 14.3
2004-04-15 09:27:36 51°10.941 2°36.271 217.1 12.8 211 14.1
2004-04-15 09:28:37 51°10.756 2°36.095 217.3 12.6 211 13.5
2004-04-15 09:29:37 51°10.575 2°35.922 217 12.7 211 13.2
2004-04-15 09:30:36 51°10.396 2°35.752 217.5 12.8 211 13.4
2004-04-15 09:31:37 51°10.211 2°35.578 217.5 12.7 211 13.5
2004-04-15 09:32:36 51°10.034 2°35.413 217.1 12.5 210 14.6
2004-04-15 09:33:37 51°9.852 2°35.246 216.9 12.4 210 19.6
2004-04-15 09:34:36 51°9.677 2°35.087 217.1 12.2 210 21.4
2004-04-15 09:35:37 51°9.483 2°34.966 205.5 12.5 198 20.8
2004-04-15 09:36:36 51°9.29 2°34.863 205.4 12.5 199 19.1
2004-04-15 09:37:37 51°9.126 2°34.819 191.9 7.4 180 19.2
2004-04-15 09:38:36 51°9.028 2°34.824 195.2 5.3 180 19.2
2004-04-15 09:39:36 51°8.946 2°34.829 197.5 4.6 185 19
2004-04-15 09:40:36 51°8.901 2°34.812 227.1 0.8 199 19.2
2004-04-15 09:41:36 51°8.901 2°34.805 258.2 0.4 319 18.8
2004-04-15 09:42:35 51°8.91 2°34.799 270 0.7 345 19.2
2004-04-15 09:43:37 51°8.925 2°34.795 273.9 0.9 355 19.2
2004-04-15 09:44:36 51°8.931 2°34.775 244.1 1.8 246 19.2
2004-04-15 09:45:36 51°8.896 2°34.748 213.1 2.3 197 19.3
2004-04-15 09:46:37 51°8.855 2°34.724 218.3 2.7 206 19.2
2004-04-15 09:47:37 51°8.817 2°34.681 230.1 2.8 223 19.1
2004-04-15 09:48:36 51°8.787 2°34.627 234.5 2.8 232 19
2004-04-15 09:49:35 51°8.758 2°34.569 232.8 2.9 229 19.2
2004-04-15 09:50:37 51°8.724 2°34.51 229.8 2.9 226 19.4
2004-04-15 09:51:36 51°8.694 2°34.45 236.6 3 235 19.4
2004-04-15 09:52:35 51°8.667 2°34.387 236.3 2.9 235 19.3
2004-04-15 09:53:36 51°8.637 2°34.327 232.6 2.9 230 19.4
2004-04-15 09:54:36 51°8.604 2°34.272 230.4 2.9 226 19.4
2004-04-15 09:55:37 51°8.572 2°34.214 234.9 2.9 232 19.4
2004-04-15 09:56:36 51°8.544 2°34.154 235.3 2.9 233 19.4
2004-04-15 09:57:36 51°8.516 2°34.093 235.1 2.9 233 19.3
2004-04-15 09:58:36 51°8.487 2°34.033 233.7 2.9 231 19.3
2004-04-15 09:59:36 51°8.456 2°33.973 233.9 2.9 231 19.2
2004-04-15 10:00:37 51°8.426 2°33.908 237.3 3 237 19.3
2004-04-15 10:01:37 51°8.4 2°33.841 237.8 3 238 19.2
2004-04-15 10:02:36 51°8.373 2°33.777 237.9 3 238 19.1
2004-04-15 10:03:36 51°8.349 2°33.707 241 3 243 19.1
2004-04-15 10:04:37 51°8.325 2°33.635 240.4 3 241 19.1
2004-04-15 10:05:37 51°8.3 2°33.565 240.9 3.1 242 19
2004-04-15 10:06:36 51°8.276 2°33.497 241 3.1 242 19
2004-04-15 10:07:36 51°8.251 2°33.425 240.4 3.1 241 18.8
2004-04-15 10:08:37 51°8.226 2°33.353 240.1 3.1 241 18.8
2004-04-15 10:09:36 51°8.201 2°33.284 240.3 3.1 242 18.9
2004-04-15 10:10:36 51°8.178 2°33.212 240.2 3.1 241 18.8
2004-04-15 10:11:36 51°8.153 2°33.141 239.8 3.1 240 18.7
2004-04-15 10:12:37 51°8.127 2°33.068 240.7 3.1 242 18.6
2004-04-15 10:13:36 51°8.102 2°32.997 239.9 3.1 242 18.5
2004-04-15 10:14:36 51°8.077 2°32.925 240.3 3.1 241 18.5
2004-04-15 10:15:37 51°8.051 2°32.852 240.2 3.1 241 18.5
2004-04-15 10:16:37 51°8.025 2°32.78 240.3 3.1 241 18.3
2004-04-15 10:17:37 51°8.001 2°32.708 240.9 3.1 242 17.8
2004-04-15 10:18:36 51°7.976 2°32.636 239.1 3.1 239 17.9
2004-04-15 10:19:37 51°7.951 2°32.562 240.9 3.1 243 18.1
2004-04-15 10:20:37 51°7.928 2°32.492 239.8 3 241 18.2
2004-04-15 10:21:37 51°7.901 2°32.428 232.9 2.9 233 17.9
2004-04-15 10:22:36 51°7.873 2°32.369 230.5 2.8 230 17.7
2004-04-15 10:23:36 51°7.84 2°32.314 227.5 3 225 17.4
2004-04-15 10:24:37 51°7.814 2°32.269 235.1 1.7 236 17.1
2004-04-15 10:25:36 51°7.808 2°32.236 251.8 1.1 266 16.9
2004-04-15 10:26:37 51°7.804 2°32.2 236.3 2.4 231 16.9
2004-04-15 10:27:37 51°7.753 2°32.225 146.4 3.8 128 16.3
2004-04-15 10:28:36 51°7.751 2°32.326 77.7 4.3 65 15.6
2004-04-15 10:29:36 51°7.791 2°32.413 59.1 3.8 53 16.2
2004-04-15 10:30:37 51°7.826 2°32.492 63.7 3.4 56 16.6
2004-04-15 10:31:36 51°7.855 2°32.566 71.3 3.6 60 16.4
2004-04-15 10:32:36 51°7.885 2°32.654 71.2 3.8 61 16.5
2004-04-15 10:33:37 51°7.916 2°32.743 71.6 3.8 61 16.8
2004-04-15 10:34:37 51°7.945 2°32.829 70.6 3.6 60 16.7
2004-04-15 10:35:36 51°7.975 2°32.905 66.7 3.4 56 16.8
2004-04-15 10:36:37 51°8.007 2°32.979 64.9 3.3 55 16.8
2004-04-15 10:37:37 51°8.039 2°33.049 65.5 3.2 55 17.2
2004-04-15 10:38:36 51°8.071 2°33.116 58.3 3.2 51 17.5
2004-04-15 10:39:36 51°8.106 2°33.18 54.4 3.2 47 17.8
2004-04-15 10:40:37 51°8.141 2°33.247 58.8 3.3 52 18.1
2004-04-15 10:41:37 51°8.173 2°33.316 66.9 3.2 56 18.2
2004-04-15 10:42:37 51°8.199 2°33.389 73.3 3.2 61 18.3
2004-04-15 10:43:37 51°8.224 2°33.463 77 3.2 64 18.3
2004-04-15 10:44:37 51°8.248 2°33.538 73.3 3.2 61 18.3
2004-04-15 10:45:37 51°8.275 2°33.612 71.8 3.2 62 18.5
2004-04-15 10:46:37 51°8.3 2°33.687 73.3 3.2 63 18.4
2004-04-15 10:47:37 51°8.324 2°33.763 74.5 3.2 63 18.4
2004-04-15 10:48:37 51°8.348 2°33.839 74 3.2 64 18.4
2004-04-15 10:49:37 51°8.372 2°33.916 73.9 3.2 62 18.4
2004-04-15 10:50:37 51°8.397 2°33.992 73.4 3.2 63 18.5
2004-04-15 10:51:37 51°8.421 2°34.069 74.2 3.2 64 18.4
2004-04-15 10:52:37 51°8.445 2°34.147 74.9 3.2 64 18.4
2004-04-15 10:53:37 51°8.469 2°34.223 70.5 3.2 62 18.3
2004-04-15 10:54:37 51°8.496 2°34.298 67.6 3.3 59 18.3
2004-04-15 10:55:37 51°8.523 2°34.372 67.6 3.3 60 18.3
2004-04-15 10:56:37 51°8.55 2°34.446 70.1 3.3 60 18.2
2004-04-15 10:57:37 51°8.576 2°34.521 71 3.3 62 18
2004-04-15 10:58:37 51°8.602 2°34.597 70 3.2 61 18.1
2004-04-15 10:59:37 51°8.628 2°34.671 72.8 3.1 63 18
2004-04-15 11:00:35 51°8.651 2°34.743 73.7 3.1 63 17.9
2004-04-15 11:01:36 51°8.675 2°34.818 70.9 3.1 61 17.7
2004-04-15 11:02:36 51°8.703 2°34.888 68.1 3.1 59 17.7
2004-04-15 11:03:37 51°8.731 2°34.962 67.2 3.4 59 17.6
2004-04-15 11:04:36 51°8.76 2°35.031 66.5 3.1 56 17.6
2004-04-15 11:05:36 51°8.785 2°35.096 73 2.8 60 17.7
2004-04-15 11:06:36 51°8.805 2°35.158 81 2.5 65 17.6
2004-04-15 11:07:36 51°8.821 2°35.215 85.9 2.2 67 17.5
2004-04-15 11:08:36 51°8.835 2°35.267 88.9 2.1 66 17.5
2004-04-15 11:09:36 51°8.85 2°35.315 86.8 1.9 63 17.4
2004-04-15 11:10:36 51°8.864 2°35.359 84.6 1.9 61 17.4
2004-04-15 11:11:37 51°8.891 2°35.42 49.3 3.9 46 17.4
2004-04-15 11:12:37 51°8.939 2°35.49 46.8 3.9 45 17.7
2004-04-15 11:13:37 51°8.98 2°35.567 57 3.8 51 17.9
2004-04-15 11:14:37 51°9.017 2°35.645 61.5 3.7 55 17.9
2004-04-15 11:15:37 51°9.05 2°35.727 69.6 3.6 60 17.9
2004-04-15 11:16:36 51°9.078 2°35.808 70.7 3.5 61 17.9
2004-04-15 11:17:36 51°9.107 2°35.886 63.4 3.4 57 17.8
2004-04-15 11:18:37 51°9.141 2°35.961 57.9 3.4 53 17.8
2004-04-15 11:19:36 51°9.175 2°36.031 56.6 3.4 51 17.8
2004-04-15 11:20:37 51°9.211 2°36.104 58.5 3.4 53 17.8
2004-04-15 11:21:37 51°9.245 2°36.176 60.2 3.4 54 17.7
2004-04-15 11:22:36 51°9.278 2°36.248 59.5 3.4 54 17.6
2004-04-15 11:23:37 51°9.312 2°36.322 62.3 3.4 55 17.7
2004-04-15 11:24:37 51°9.343 2°36.397 65.7 3.4 58 17.7
2004-04-15 11:25:38 51°9.375 2°36.474 68.2 3.4 58 17.6
2004-04-15 11:26:37 51°9.403 2°36.548 71.7 3.3 59 17.6
2004-04-15 11:27:37 51°9.43 2°36.621 70.1 3.2 58 17.6
2004-04-15 11:28:37 51°9.457 2°36.693 65.8 3.2 56 17.6
2004-04-15 11:29:38 51°9.49 2°36.763 63.1 3.2 55 17.5
2004-04-15 11:30:36 51°9.519 2°36.829 60.9 3.2 54 17.6
2004-04-15 11:31:36 51°9.551 2°36.897 60.9 3.2 54 17.5
2004-04-15 11:32:37 51°9.58 2°36.966 62.1 3.2 54 17.5
2004-04-15 11:33:37 51°9.61 2°37.035 64.5 3.2 56 17.6
2004-04-15 11:34:36 51°9.639 2°37.104 66.9 3.2 57 17.7
2004-04-15 11:35:37 51°9.667 2°37.175 67.2 3.1 58 17.7
2004-04-15 11:36:36 51°9.695 2°37.242 66.5 3.1 58 17.7
2004-04-15 11:37:36 51°9.722 2°37.311 63.8 3.1 55 17.8
2004-04-15 11:38:37 51°9.754 2°37.381 62.1 3.1 55 17.9
2004-04-15 11:39:37 51°9.783 2°37.449 61.8 3.1 55 18
2004-04-15 11:40:37 51°9.81 2°37.515 64.5 3 56 18
2004-04-15 11:41:36 51°9.835 2°37.58 66.7 3 59 18
2004-04-15 11:42:37 51°9.861 2°37.65 66 3 59 18.1
2004-04-15 11:43:35 51°9.886 2°37.717 66.7 3 60 18.1
2004-04-15 11:44:36 51°9.908 2°37.789 76.9 2.9 66 18.1
2004-04-15 11:45:36 51°9.927 2°37.86 80.9 2.9 70 18.1
2004-04-15 11:46:36 51°9.944 2°37.931 83.9 2.9 71 18.1
2004-04-15 11:47:37 51°9.96 2°38.006 87.9 3 73 17.9
2004-04-15 11:48:37 51°9.977 2°38.086 77.4 3.5 67 18
2004-04-15 11:49:37 51°10.008 2°38.176 72.5 4.2 62 17.9
2004-04-15 11:50:37 51°10.002 2°38.312 129.9 5.5 116 17
2004-04-15 11:51:36 51°9.936 2°38.372 183 3.9 170 16.6
2004-04-15 11:52:37 51°9.888 2°38.371 201 2.2 189 16.1
2004-04-15 11:53:37 51°9.86 2°38.358 211.1 1.4 203 15.8
2004-04-15 11:54:37 51°9.844 2°38.344 217 0.9 208 15.7
2004-04-15 11:55:36 51°9.835 2°38.331 222.1 0.8 230 15.7
2004-04-15 11:56:37 51°9.82 2°38.3 232.7 1.9 235 15.6
2004-04-15 11:57:37 51°9.797 2°38.253 229.5 2.4 230 15.5
2004-04-15 11:58:36 51°9.771 2°38.201 236.6 2.5 237 15.3
2004-04-15 11:59:37 51°9.751 2°38.143 242 2.4 244 15.3
2004-04-15 12:00:37 51°9.731 2°38.089 237.1 2.3 238 15.3
2004-04-15 12:01:37 51°9.71 2°38.038 237.4 2.3 238 15.2
2004-04-15 12:02:37 51°9.691 2°37.983 243.3 2.6 243 15.2
2004-04-15 12:03:37 51°9.674 2°37.917 247.3 2.7 248 15.2
2004-04-15 12:04:36 51°9.654 2°37.851 241.2 2.8 242 15.3
2004-04-15 12:05:37 51°9.631 2°37.786 238.4 2.8 238 15.2
2004-04-15 12:06:37 51°9.607 2°37.722 239.5 2.8 240 15.2
2004-04-15 12:07:37 51°9.584 2°37.658 239.2 2.8 240 15.1
2004-04-15 12:08:37 51°9.56 2°37.595 239.1 2.7 239 15
2004-04-15 12:09:37 51°9.537 2°37.532 239.6 2.7 240 15
2004-04-15 12:10:37 51°9.514 2°37.47 238.8 2.8 238 14.9
2004-04-15 12:11:37 51°9.489 2°37.406 239.4 2.9 237 14.8
2004-04-15 12:12:37 51°9.463 2°37.342 241.7 2.9 240 14.8
2004-04-15 12:13:37 51°9.441 2°37.274 246.8 2.9 246 14.9
2004-04-15 12:14:37 51°9.424 2°37.203 251.4 2.8 250 15
2004-04-15 12:15:37 51°9.406 2°37.135 246 2.7 244 15
2004-04-15 12:16:37 51°9.385 2°37.072 239.7 2.7 239 15.1
2004-04-15 12:17:37 51°9.361 2°37.013 237.4 2.7 237 14.9
2004-04-15 12:18:37 51°9.337 2°36.954 237.7 2.7 237 14.9
2004-04-15 12:19:37 51°9.314 2°36.895 239.5 2.6 240 14.9
2004-04-15 12:20:37 51°9.292 2°36.837 238.9 2.6 240 14.9
2004-04-15 12:21:37 51°9.27 2°36.778 238.7 2.6 239 14.9
2004-04-15 12:22:37 51°9.248 2°36.718 239.2 2.7 240 14.9
2004-04-15 12:23:37 51°9.225 2°36.655 239.5 2.7 241 14.8
2004-04-15 12:24:37 51°9.204 2°36.591 242.8 2.7 243 14.8
2004-04-15 12:25:37 51°9.186 2°36.518 250.5 3.1 251 14.9
2004-04-15 12:26:36 51°9.171 2°36.434 258.6 3.4 260 15.2
2004-04-15 12:27:37 51°9.166 2°36.347 267.6 3.1 268 15.6
2004-04-15 12:28:37 51°9.169 2°36.265 276.1 3.1 276 16.2
2004-04-15 12:29:37 51°9.18 2°36.185 285.3 3.1 287 16.4
2004-04-15 12:30:36 51°9.198 2°36.109 293.6 3 293 16.8
2004-04-15 12:31:37 51°9.219 2°36.045 300.9 2.5 301 16.8
2004-04-15 12:32:37 51°9.241 2°35.996 307.3 2.1 309 16.7
2004-04-15 12:33:37 51°9.264 2°35.958 313.2 1.9 318 16.7
2004-04-15 12:34:37 51°9.287 2°35.928 317.1 1.7 322 16.6
2004-04-15 12:35:37 51°9.33 2°35.889 341.1 5.2 343 17.2
2004-04-15 12:36:37 51°9.44 2°35.946 41.1 7.3 36 17
2004-04-15 12:37:36 51°9.482 2°36.027 88 1.6 69 17.3
2004-04-15 12:38:37 51°9.485 2°36.06 115.5 1.1 89 17.3
2004-04-15 12:39:36 51°9.485 2°36.086 120.3 0.9 94 17.3
2004-04-15 12:40:37 51°9.484 2°36.11 119.7 0.9 87 17.3
2004-04-15 12:41:37 51°9.485 2°36.132 119.3 0.8 88 16.9
2004-04-15 12:42:38 51°9.486 2°36.154 119.5 0.8 86 16.6
2004-04-15 12:43:37 51°9.486 2°36.174 121.2 0.8 92 17.3
2004-04-15 12:44:37 51°9.485 2°36.193 124.3 0.7 96 17
2004-04-15 12:45:37 51°9.485 2°36.211 125.8 0.6 97 16.6
2004-04-15 12:46:36 51°9.485 2°36.229 126.2 0.6 93 17.3
2004-04-15 12:47:37 51°9.484 2°36.245 126.7 0.6 92 17.1
2004-04-15 12:48:37 51°9.485 2°36.34 82.3 6.9 73 17
2004-04-15 12:49:36 51°9.568 2°36.599 60.2 13.4 54 16.6
2004-04-15 12:50:37 51°9.712 2°36.891 57.4 13.9 52 16.4
2004-04-15 12:51:37 51°9.851 2°37.187 61.2 13.9 56 17.3
2004-04-15 12:52:37 51°9.987 2°37.485 58.1 13.9 53 17.5
2004-04-15 12:53:37 51°10.124 2°37.782 58.6 13.9 54 17.6
2004-04-15 12:54:37 51°10.259 2°38.078 59.5 13.7 55 17.1
2004-04-15 12:55:36 51°10.387 2°38.372 59 13.8 55 17
2004-04-15 12:56:37 51°10.523 2°38.675 59.3 13.8 55 17.2
2004-04-15 12:57:37 51°10.656 2°38.973 59.5 13.8 55 17.3
2004-04-15 12:58:35 51°10.785 2°39.26 59.5 13.8 55 17.2
2004-04-15 12:59:37 51°10.925 2°39.569 59.6 14 54 16.9
2004-04-15 13:00:37 51°11.062 2°39.868 59.4 14 54 16.5
2004-04-15 13:01:37 51°11.197 2°40.169 59.1 14 54 16.3
2004-04-15 13:02:37 51°11.323 2°40.481 65.2 14 62 15.7
2004-04-15 13:03:37 51°11.399 2°40.829 74.6 13.9 70 15
2004-04-15 13:04:36 51°11.498 2°41.154 66.2 13.8 61 14.5
2004-04-15 13:05:37 51°11.61 2°41.481 66.7 13.8 61 14
2004-04-15 13:06:37 51°11.72 2°41.803 66.9 13.8 61 13.7
2004-04-15 13:07:36 51°11.825 2°42.12 68.5 13.8 64 13.2
2004-04-15 13:08:37 51°11.922 2°42.455 70.4 13.6 65 12.1
2004-04-15 13:09:37 51°12.017 2°42.785 70.2 13.7 65 11.1
2004-04-15 13:10:37 51°12.102 2°43.121 73.7 13.7 69 11
2004-04-15 13:11:37 51°12.186 2°43.457 73.6 13.6 68 10.8
2004-04-15 13:12:37 51°12.27 2°43.79 73.9 13.3 70 10.8
2004-04-15 13:13:37 51°12.342 2°44.129 76.5 13.4 71 10.2
2004-04-15 13:14:37 51°12.402 2°44.47 79.2 13.4 74 9.4
2004-04-15 13:15:37 51°12.462 2°44.809 80.2 13.2 75 8.7
2004-04-15 13:16:37 51°12.521 2°45.147 82 13.2 77 8.3
2004-04-15 13:17:36 51°12.582 2°45.477 76.5 13.2 73 8.8
2004-04-15 13:18:38 51°12.666 2°45.818 68.7 13.4 63 9.3
2004-04-15 13:19:37 51°12.764 2°46.13 66.3 13.4 60 9.8
2004-04-15 13:20:37 51°12.873 2°46.436 62.6 13.3 56 9.3
2004-04-15 13:21:37 51°13.004 2°46.717 55.7 13.2 50 9.5
2004-04-15 13:22:37 51°13.145 2°46.989 56.8 13.3 51 10.1
2004-04-15 13:23:36 51°13.283 2°47.26 55.7 13.4 50 10.5
2004-04-15 13:24:37 51°13.425 2°47.541 57.2 13.3 51 10.8
2004-04-15 13:25:37 51°13.548 2°47.795 64.7 9.2 60 11
2004-04-15 13:26:37 51°13.589 2°47.934 64.9 4.4 59 11.3
2004-04-15 13:27:37 51°13.632 2°48.009 54.5 3.6 45 11.4
2004-04-15 13:28:37 51°13.663 2°48.079 67.1 3.1 58 11.4
2004-04-15 13:29:36 51°13.686 2°48.144 72.4 2.7 64 11.5
2004-04-15 13:30:38 51°13.704 2°48.212 75.4 2.6 68 11.4
2004-04-15 13:31:37 51°13.719 2°48.277 76.2 2.7 71 11.2
2004-04-15 13:32:38 51°13.736 2°48.344 73.1 2.7 66 11.4
2004-04-15 13:33:37 51°13.755 2°48.407 70.8 2.7 63 11.2
2004-04-15 13:34:37 51°13.775 2°48.471 68.9 2.7 62 11.2
2004-04-15 13:35:37 51°13.8 2°48.531 61.7 2.8 52 11.1
2004-04-15 13:36:37 51°13.828 2°48.59 61.1 2.8 52 11.4
2004-04-15 13:37:37 51°13.856 2°48.648 63 2.8 53 11.2
2004-04-15 13:38:36 51°13.883 2°48.707 63.9 2.8 54 11.1
2004-04-15 13:39:37 51°13.909 2°48.768 65 2.7 55 11.1
2004-04-15 13:40:38 51°13.935 2°48.828 65 2.7 57 11.1
2004-04-15 13:41:37 51°13.959 2°48.886 63.8 2.7 54 10.9
2004-04-15 13:42:37 51°13.985 2°48.945 64.2 2.8 55 11
2004-04-15 13:43:38 51°14.013 2°49.007 64.1 2.8 56 11.1
2004-04-15 13:44:37 51°14.038 2°49.069 63.8 2.8 58 11
2004-04-15 13:45:37 51°14.064 2°49.13 64.2 2.8 57 11
2004-04-15 13:46:36 51°14.09 2°49.191 64.1 2.8 55 11
2004-04-15 13:47:37 51°14.116 2°49.254 63.9 2.8 56 11
2004-04-15 13:48:37 51°14.142 2°49.315 64.1 2.8 55 11.1
2004-04-15 13:49:37 51°14.168 2°49.376 64.2 2.9 53 11.1
2004-04-15 13:50:37 51°14.194 2°49.438 63.9 2.8 54 11.1
2004-04-15 13:51:37 51°14.22 2°49.499 64.5 2.8 59 11.2
2004-04-15 13:52:37 51°14.246 2°49.56 64.2 2.8 55 11.2
2004-04-15 13:53:37 51°14.271 2°49.621 64.2 2.8 54 11.1
2004-04-15 13:54:37 51°14.298 2°49.682 64 2.8 55 11.2
2004-04-15 13:55:37 51°14.324 2°49.743 64.5 2.9 54 11.3
2004-04-15 13:56:37 51°14.349 2°49.804 64.6 2.8 56 11.3
2004-04-15 13:57:37 51°14.374 2°49.865 63.9 2.8 57 11.2
2004-04-15 13:58:36 51°14.4 2°49.924 64.5 2.8 55 11.2
2004-04-15 13:59:37 51°14.424 2°49.986 65.7 2.7 60 11.2
2004-04-15 14:00:37 51°14.445 2°50.048 69.6 2.7 63 11.2
2004-04-15 14:01:37 51°14.463 2°50.114 72.9 2.7 70 11.1
2004-04-15 14:02:37 51°14.478 2°50.181 77.7 2.7 76 11
2004-04-15 14:03:37 51°14.488 2°50.236 74.4 1.9 68 11.1
2004-04-15 14:04:37 51°14.499 2°50.271 64.1 1.4 53 11.1
2004-04-15 14:05:38 51°14.514 2°50.293 56.6 1 36 11.1
2004-04-15 14:06:38 51°14.527 2°50.306 52.6 1.1 31 11.1
2004-04-15 14:07:37 51°14.565 2°50.327 28.7 3 12 11.2
2004-04-15 14:08:37 51°14.616 2°50.346 30.4 3.2 17 11.5
2004-04-15 14:09:38 51°14.668 2°50.379 38.8 3.2 25 11.7
2004-04-15 14:10:37 51°14.712 2°50.422 46.6 3.2 35 11.8
2004-04-15 14:11:37 51°14.754 2°50.472 48.8 3.1 39 11.8
2004-04-15 14:12:38 51°14.795 2°50.522 48 3.1 36 11.8
2004-04-15 14:13:38 51°14.835 2°50.572 49 3 39 11.9
2004-04-15 14:14:37 51°14.874 2°50.62 48.4 3.1 38 11.9
2004-04-15 14:15:37 51°14.914 2°50.672 50.5 3.1 41 12
2004-04-15 14:16:37 51°14.951 2°50.729 55.1 3.1 47 12.1
2004-04-15 14:17:37 51°14.986 2°50.788 57.2 3 48 12.1
2004-04-15 14:18:37 51°15.02 2°50.847 56 3 47 12.2
2004-04-15 14:19:37 51°15.055 2°50.905 55.3 3 45 12.2
2004-04-15 14:20:38 51°15.09 2°50.965 57.4 3 50 12.3
2004-04-15 14:21:37 51°15.12 2°51.027 60.8 3 54 12.2
2004-04-15 14:22:37 51°15.15 2°51.092 61.3 3 55 12.1
2004-04-15 14:23:37 51°15.178 2°51.159 64.4 3 57 12.1
2004-04-15 14:24:37 51°15.204 2°51.227 65 3 59 12.2
2004-04-15 14:25:38 51°15.231 2°51.296 63.1 3 55 12.1
2004-04-15 14:26:37 51°15.259 2°51.361 63.8 3 57 12.1
2004-04-15 14:27:37 51°15.286 2°51.426 64 2.9 56 12.1
2004-04-15 14:28:37 51°15.313 2°51.491 63.6 2.9 57 12.2
2004-04-15 14:29:37 51°15.34 2°51.556 62.9 3 56 12.2
2004-04-15 14:30:38 51°15.368 2°51.623 63.8 3 57 12.1
2004-04-15 14:31:37 51°15.395 2°51.687 62.8 3 57 12.2
2004-04-15 14:32:38 51°15.422 2°51.754 62.5 3 57 12.1
2004-04-15 14:33:38 51°15.449 2°51.82 62.8 3 56 12.1
2004-04-15 14:34:38 51°15.477 2°51.887 63.4 3 58 12.1
2004-04-15 14:35:36 51°15.503 2°51.952 62.8 3 57 12
2004-04-15 14:36:38 51°15.531 2°52.022 63.7 3 57 12
2004-04-15 14:37:38 51°15.558 2°52.09 63.3 3 57 11.9
2004-04-15 14:38:37 51°15.582 2°52.157 68.8 2.9 65 11.9
2004-04-15 14:39:38 51°15.597 2°52.232 77.6 2.9 77 11.8
2004-04-15 14:40:38 51°15.604 2°52.308 85.7 2.9 86 11.7
2004-04-15 14:41:37 51°15.601 2°52.383 95.5 3 98 11.7
2004-04-15 14:42:37 51°15.592 2°52.45 102.3 2.2 108 11.6
2004-04-15 14:43:36 51°15.579 2°52.497 103.7 1.7 115 11.5
2004-04-15 14:44:37 51°15.569 2°52.533 96 1.3 112 11.4
2004-04-15 14:45:38 51°15.56 2°52.587 101.1 4 107 11.4
2004-04-15 14:46:38 51°15.475 2°52.693 159.5 8.2 165 11
2004-04-15 14:47:37 51°15.342 2°52.607 227.1 9.6 227 10.7
2004-04-15 14:48:38 51°15.301 2°52.434 271.4 5.4 262 11
2004-04-15 14:49:37 51°15.297 2°52.342 297.8 1.1 224 11.2
2004-04-15 14:50:37 51°15.285 2°52.326 298 1 224 4.9
2004-04-15 14:51:37 51°15.275 2°52.307 292.7 1 228 11.1
2004-04-15 14:52:37 51°15.264 2°52.287 285.4 1 229 11.1
2004-04-15 14:53:37 51°15.253 2°52.259 275.1 1.8 250 11.1
2004-04-15 14:54:36 51°15.194 2°52.165 194.8 6.6 195 11
2004-04-15 14:55:37 51°15.091 2°52.285 114.9 10.4 114 10.5
2004-04-15 14:56:37 51°15.029 2°52.591 108.2 12.5 106 9.9
2004-04-15 14:57:37 51°14.974 2°52.916 107.8 12.8 105 9.6
2004-04-15 14:58:38 51°14.898 2°53.242 114.9 13 113 9.5
2004-04-15 14:59:38 51°14.816 2°53.562 114.4 13 112 9.6
2004-04-15 15:00:37 51°14.738 2°53.877 112.5 13 110 9.5
2004-04-15 15:01:37 51°14.665 2°54.203 112.2 13 111 9.8
2004-04-15 15:02:37 51°14.573 2°54.514 118.9 13 118 9.4
2004-04-15 15:03:37 51°14.46 2°54.81 122.6 13 121 9.7
2004-04-15 15:04:37 51°14.345 2°55.103 125.6 12.9 121 9.9
2004-04-15 15:05:37 51°14.22 2°55.322 146.6 9.6 142 10.2
2004-04-15 15:06:36 51°14.104 2°55.426 160.8 7.9 156 9.6